sensor_id;sensor_type;location;lat;lon;timestamp;P1;durP1;ratioP1;P2;durP2;ratioP2
75379;SDS011;65641;44.714;37.756;2023-08-24T03:02:24;1.27;;;1.17;;
75379;SDS011;65641;44.714;37.756;2023-08-24T03:03:28;1.25;;;1.08;;
75379;SDS011;65641;44.714;37.756;2023-08-24T03:04:32;1.70;;;1.00;;
75379;SDS011;65641;44.714;37.756;2023-08-24T03:05:36;1.55;;;1.10;;
75379;SDS011;65641;44.714;37.756;2023-08-24T03:06:39;1.33;;;1.02;;
75379;SDS011;65641;44.714;37.756;2023-08-24T03:07:43;1.30;;;1.20;;
75379;SDS011;65641;44.714;37.756;2023-08-24T03:08:46;1.30;;;1.13;;
75379;SDS011;65641;44.714;37.756;2023-08-24T03:09:49;1.30;;;1.20;;
75379;SDS011;65641;44.714;37.756;2023-08-24T03:10:53;1.45;;;1.35;;
75379;SDS011;65641;44.714;37.756;2023-08-24T03:11:56;1.52;;;1.33;;
75379;SDS011;65641;44.714;37.756;2023-08-24T03:12:59;1.42;;;1.33;;
75379;SDS011;65641;44.714;37.756;2023-08-24T03:14:03;1.23;;;1.13;;
75379;SDS011;65641;44.714;37.756;2023-08-24T03:15:06;1.55;;;1.40;;
75379;SDS011;65641;44.714;37.756;2023-08-24T03:16:10;4.00;;;1.60;;
75379;SDS011;65641;44.714;37.756;2023-08-24T03:17:13;2.17;;;1.23;;
75379;SDS011;65641;44.714;37.756;2023-08-24T03:18:17;1.27;;;1.17;;
75379;SDS011;65641;44.714;37.756;2023-08-24T03:19:21;1.40;;;1.27;;
75379;SDS011;65641;44.714;37.756;2023-08-24T03:20:25;1.55;;;1.25;;
75379;SDS011;65641;44.714;37.756;2023-08-24T03:21:29;1.73;;;1.00;;
75379;SDS011;65641;44.714;37.756;2023-08-24T03:22:32;1.90;;;1.48;;
75379;SDS011;65641;44.714;37.756;2023-08-24T03:23:36;1.65;;;1.15;;
75379;SDS011;65641;44.714;37.756;2023-08-24T03:24:41;1.95;;;1.70;;
75379;SDS011;65641;44.714;37.756;2023-08-24T03:25:44;1.50;;;1.30;;
75379;SDS011;65641;44.714;37.756;2023-08-24T03:26:48;1.95;;;1.45;;
75379;SDS011;65641;44.714;37.756;2023-08-24T03:27:52;1.88;;;1.77;;
75379;SDS011;65641;44.714;37.756;2023-08-24T03:28:55;1.50;;;1.15;;
75379;SDS011;65641;44.714;37.756;2023-08-24T03:29:59;1.60;;;1.48;;
75379;SDS011;65641;44.714;37.756;2023-08-24T03:31:02;2.15;;;1.25;;
75379;SDS011;65641;44.714;37.756;2023-08-24T03:32:05;1.98;;;1.88;;
75379;SDS011;65641;44.714;37.756;2023-08-24T03:33:09;1.40;;;0.98;;
75379;SDS011;65641;44.714;37.756;2023-08-24T03:34:12;1.73;;;0.90;;
75379;SDS011;65641;44.714;37.756;2023-08-24T03:35:16;1.45;;;1.13;;
75379;SDS011;65641;44.714;37.756;2023-08-24T03:36:20;1.40;;;1.27;;
75379;SDS011;65641;44.714;37.756;2023-08-24T03:37:23;1.52;;;1.42;;
75379;SDS011;65641;44.714;37.756;2023-08-24T03:38:27;1.52;;;1.13;;
75379;SDS011;65641;44.714;37.756;2023-08-24T03:39:31;1.38;;;1.13;;
75379;SDS011;65641;44.714;37.756;2023-08-24T03:40:35;1.67;;;1.40;;
75379;SDS011;65641;44.714;37.756;2023-08-24T03:41:39;1.85;;;1.55;;
75379;SDS011;65641;44.714;37.756;2023-08-24T03:42:43;1.98;;;1.77;;
75379;SDS011;65641;44.714;37.756;2023-08-24T03:43:51;2.00;;;1.42;;
75379;SDS011;65641;44.714;37.756;2023-08-24T03:44:55;2.47;;;1.25;;
75379;SDS011;65641;44.714;37.756;2023-08-24T03:45:58;3.45;;;1.73;;
75379;SDS011;65641;44.714;37.756;2023-08-24T03:47:01;2.25;;;1.60;;
75379;SDS011;65641;44.714;37.756;2023-08-24T03:48:05;2.97;;;1.50;;
75379;SDS011;65641;44.714;37.756;2023-08-24T03:49:09;2.15;;;1.45;;
75379;SDS011;65641;44.714;37.756;2023-08-24T03:50:12;2.20;;;1.90;;
75379;SDS011;65641;44.714;37.756;2023-08-24T03:51:16;4.32;;;2.28;;
75379;SDS011;65641;44.714;37.756;2023-08-24T03:52:19;2.97;;;1.17;;
75379;SDS011;65641;44.714;37.756;2023-08-24T03:53:23;8.07;;;2.13;;
75379;SDS011;65641;44.714;37.756;2023-08-24T03:54:26;6.95;;;2.47;;
75379;SDS011;65641;44.714;37.756;2023-08-24T03:55:31;5.15;;;2.67;;
75379;SDS011;65641;44.714;37.756;2023-08-24T03:56:35;5.10;;;2.78;;
75379;SDS011;65641;44.714;37.756;2023-08-24T03:57:38;5.40;;;3.08;;
75379;SDS011;65641;44.714;37.756;2023-08-24T03:58:42;4.95;;;2.88;;
75379;SDS011;65641;44.714;37.756;2023-08-24T03:59:46;8.52;;;2.83;;
75379;SDS011;65641;44.714;37.756;2023-08-24T04:00:49;9.50;;;3.15;;
75379;SDS011;65641;44.714;37.756;2023-08-24T04:01:53;6.68;;;2.17;;
75379;SDS011;65641;44.714;37.756;2023-08-24T04:02:57;6.57;;;2.53;;
75379;SDS011;65641;44.714;37.756;2023-08-24T04:04:02;9.10;;;3.47;;
75379;SDS011;65641;44.714;37.756;2023-08-24T04:05:06;8.02;;;3.33;;
75379;SDS011;65641;44.714;37.756;2023-08-24T04:06:10;10.07;;;4.22;;
75379;SDS011;65641;44.714;37.756;2023-08-24T04:07:13;9.02;;;2.42;;
75379;SDS011;65641;44.714;37.756;2023-08-24T04:08:17;11.43;;;3.20;;
75379;SDS011;65641;44.714;37.756;2023-08-24T04:09:20;9.57;;;3.50;;
75379;SDS011;65641;44.714;37.756;2023-08-24T04:10:24;10.85;;;3.50;;
75379;SDS011;65641;44.714;37.756;2023-08-24T04:11:28;9.85;;;3.88;;
75379;SDS011;65641;44.714;37.756;2023-08-24T04:12:32;10.55;;;4.80;;
75379;SDS011;65641;44.714;37.756;2023-08-24T04:13:36;12.82;;;5.00;;
75379;SDS011;65641;44.714;37.756;2023-08-24T04:14:40;9.60;;;4.28;;
75379;SDS011;65641;44.714;37.756;2023-08-24T04:15:43;10.48;;;4.68;;
75379;SDS011;65641;44.714;37.756;2023-08-24T04:16:47;12.20;;;4.35;;
75379;SDS011;65641;44.714;37.756;2023-08-24T04:17:51;13.35;;;4.47;;
75379;SDS011;65641;44.714;37.756;2023-08-24T04:18:55;9.13;;;4.53;;
75379;SDS011;65641;44.714;37.756;2023-08-24T04:19:59;10.50;;;3.63;;
75379;SDS011;65641;44.714;37.756;2023-08-24T04:21:06;9.95;;;3.50;;
75379;SDS011;65641;44.714;37.756;2023-08-24T04:22:09;10.07;;;4.13;;
75379;SDS011;65641;44.714;37.756;2023-08-24T04:23:13;9.23;;;3.97;;
75379;SDS011;65641;44.714;37.756;2023-08-24T04:24:17;10.35;;;3.90;;
75379;SDS011;65641;44.714;37.756;2023-08-24T04:25:20;10.85;;;4.85;;
75379;SDS011;65641;44.714;37.756;2023-08-24T04:26:24;10.25;;;4.32;;
75379;SDS011;65641;44.714;37.756;2023-08-24T04:27:28;9.50;;;3.83;;
75379;SDS011;65641;44.714;37.756;2023-08-24T04:28:31;11.48;;;4.18;;
75379;SDS011;65641;44.714;37.756;2023-08-24T04:29:35;9.82;;;4.38;;
75379;SDS011;65641;44.714;37.756;2023-08-24T04:30:39;13.73;;;4.50;;
75379;SDS011;65641;44.714;37.756;2023-08-24T04:31:42;10.27;;;4.50;;
75379;SDS011;65641;44.714;37.756;2023-08-24T04:32:46;11.25;;;4.30;;
75379;SDS011;65641;44.714;37.756;2023-08-24T04:33:50;9.50;;;4.05;;
75379;SDS011;65641;44.714;37.756;2023-08-24T04:34:53;8.73;;;4.85;;
75379;SDS011;65641;44.714;37.756;2023-08-24T04:35:57;9.32;;;3.90;;
75379;SDS011;65641;44.714;37.756;2023-08-24T04:37:01;9.77;;;4.28;;
75379;SDS011;65641;44.714;37.756;2023-08-24T04:38:06;11.35;;;4.03;;
75379;SDS011;65641;44.714;37.756;2023-08-24T04:39:09;8.70;;;3.78;;
75379;SDS011;65641;44.714;37.756;2023-08-24T04:40:13;10.20;;;4.03;;
75379;SDS011;65641;44.714;37.756;2023-08-24T04:41:17;10.23;;;3.65;;
75379;SDS011;65641;44.714;37.756;2023-08-24T04:42:20;9.93;;;4.57;;
75379;SDS011;65641;44.714;37.756;2023-08-24T04:43:24;8.35;;;3.88;;
75379;SDS011;65641;44.714;37.756;2023-08-24T04:44:28;12.30;;;4.05;;
75379;SDS011;65641;44.714;37.756;2023-08-24T04:45:31;8.85;;;4.70;;
75379;SDS011;65641;44.714;37.756;2023-08-24T04:46:35;9.75;;;4.90;;
75379;SDS011;65641;44.714;37.756;2023-08-24T04:47:39;10.05;;;4.13;;
75379;SDS011;65641;44.714;37.756;2023-08-24T04:48:42;8.98;;;4.25;;
75379;SDS011;65641;44.714;37.756;2023-08-24T04:49:46;11.43;;;3.55;;
75379;SDS011;65641;44.714;37.756;2023-08-24T04:50:50;8.55;;;3.70;;
75379;SDS011;65641;44.714;37.756;2023-08-24T04:51:56;8.65;;;3.80;;
75379;SDS011;65641;44.714;37.756;2023-08-24T04:53:00;8.70;;;4.00;;
75379;SDS011;65641;44.714;37.756;2023-08-24T04:54:03;9.45;;;3.72;;
75379;SDS011;65641;44.714;37.756;2023-08-24T04:55:07;10.65;;;4.20;;
75379;SDS011;65641;44.714;37.756;2023-08-24T04:56:11;9.25;;;3.90;;
75379;SDS011;65641;44.714;37.756;2023-08-24T04:57:15;8.80;;;4.18;;
75379;SDS011;65641;44.714;37.756;2023-08-24T04:58:19;8.15;;;3.88;;
75379;SDS011;65641;44.714;37.756;2023-08-24T04:59:23;8.13;;;3.95;;
75379;SDS011;65641;44.714;37.756;2023-08-24T05:00:27;10.05;;;4.07;;
75379;SDS011;65641;44.714;37.756;2023-08-24T05:01:30;7.78;;;4.18;;
75379;SDS011;65641;44.714;37.756;2023-08-24T05:02:37;10.07;;;4.03;;
75379;SDS011;65641;44.714;37.756;2023-08-24T05:03:40;8.45;;;3.65;;
75379;SDS011;65641;44.714;37.756;2023-08-24T05:04:44;9.10;;;4.10;;
75379;SDS011;65641;44.714;37.756;2023-08-24T05:05:48;7.85;;;3.58;;
75379;SDS011;65641;44.714;37.756;2023-08-24T05:06:51;8.00;;;3.90;;
75379;SDS011;65641;44.714;37.756;2023-08-24T05:07:55;8.75;;;3.72;;
75379;SDS011;65641;44.714;37.756;2023-08-24T05:08:58;9.43;;;4.70;;
75379;SDS011;65641;44.714;37.756;2023-08-24T05:10:02;8.88;;;4.35;;
75379;SDS011;65641;44.714;37.756;2023-08-24T05:11:12;9.27;;;3.72;;
75379;SDS011;65641;44.714;37.756;2023-08-24T05:12:17;9.13;;;3.92;;
75379;SDS011;65641;44.714;37.756;2023-08-24T05:13:20;6.93;;;3.15;;
75379;SDS011;65641;44.714;37.756;2023-08-24T05:14:25;9.27;;;4.40;;
75379;SDS011;65641;44.714;37.756;2023-08-24T05:15:28;6.75;;;3.53;;
75379;SDS011;65641;44.714;37.756;2023-08-24T05:16:32;7.93;;;3.60;;
75379;SDS011;65641;44.714;37.756;2023-08-24T05:17:36;8.15;;;4.32;;
75379;SDS011;65641;44.714;37.756;2023-08-24T05:18:40;7.07;;;4.35;;
75379;SDS011;65641;44.714;37.756;2023-08-24T05:19:43;7.32;;;2.80;;
75379;SDS011;65641;44.714;37.756;2023-08-24T05:20:47;8.25;;;3.78;;
75379;SDS011;65641;44.714;37.756;2023-08-24T05:21:51;7.93;;;3.70;;
75379;SDS011;65641;44.714;37.756;2023-08-24T05:22:54;9.43;;;3.58;;
75379;SDS011;65641;44.714;37.756;2023-08-24T05:23:58;8.75;;;3.58;;
75379;SDS011;65641;44.714;37.756;2023-08-24T05:25:03;8.07;;;3.25;;
75379;SDS011;65641;44.714;37.756;2023-08-24T05:26:07;7.93;;;3.25;;
75379;SDS011;65641;44.714;37.756;2023-08-24T05:27:11;8.18;;;3.45;;
75379;SDS011;65641;44.714;37.756;2023-08-24T05:28:15;7.45;;;3.58;;
75379;SDS011;65641;44.714;37.756;2023-08-24T05:29:18;9.43;;;3.05;;
75379;SDS011;65641;44.714;37.756;2023-08-24T05:30:22;7.45;;;3.55;;
75379;SDS011;65641;44.714;37.756;2023-08-24T05:31:27;6.55;;;3.63;;
75379;SDS011;65641;44.714;37.756;2023-08-24T05:32:30;7.05;;;3.80;;
75379;SDS011;65641;44.714;37.756;2023-08-24T05:33:34;8.25;;;3.47;;
75379;SDS011;65641;44.714;37.756;2023-08-24T05:34:37;8.15;;;3.75;;
75379;SDS011;65641;44.714;37.756;2023-08-24T05:35:41;6.40;;;3.42;;
75379;SDS011;65641;44.714;37.756;2023-08-24T05:36:45;6.00;;;3.83;;
75379;SDS011;65641;44.714;37.756;2023-08-24T05:37:49;8.82;;;3.97;;
75379;SDS011;65641;44.714;37.756;2023-08-24T05:38:53;6.43;;;3.22;;
75379;SDS011;65641;44.714;37.756;2023-08-24T05:40:08;7.07;;;3.80;;
75379;SDS011;65641;44.714;37.756;2023-08-24T05:41:12;7.68;;;3.70;;
75379;SDS011;65641;44.714;37.756;2023-08-24T05:42:16;5.72;;;3.75;;
75379;SDS011;65641;44.714;37.756;2023-08-24T05:43:21;7.30;;;3.42;;
75379;SDS011;65641;44.714;37.756;2023-08-24T05:44:24;11.13;;;3.70;;
75379;SDS011;65641;44.714;37.756;2023-08-24T05:45:28;6.75;;;3.78;;
75379;SDS011;65641;44.714;37.756;2023-08-24T05:46:32;7.00;;;3.45;;
75379;SDS011;65641;44.714;37.756;2023-08-24T05:47:35;6.80;;;3.97;;
75379;SDS011;65641;44.714;37.756;2023-08-24T05:48:39;7.60;;;3.90;;
75379;SDS011;65641;44.714;37.756;2023-08-24T05:49:43;6.80;;;3.40;;
75379;SDS011;65641;44.714;37.756;2023-08-24T05:50:47;6.57;;;2.30;;
75379;SDS011;65641;44.714;37.756;2023-08-24T05:51:51;6.70;;;3.40;;
75379;SDS011;65641;44.714;37.756;2023-08-24T05:52:55;6.32;;;3.90;;
75379;SDS011;65641;44.714;37.756;2023-08-24T05:54:00;7.32;;;3.47;;
75379;SDS011;65641;44.714;37.756;2023-08-24T05:55:03;5.10;;;3.55;;
75379;SDS011;65641;44.714;37.756;2023-08-24T05:56:07;6.70;;;3.83;;
75379;SDS011;65641;44.714;37.756;2023-08-24T05:57:11;6.53;;;2.78;;
75379;SDS011;65641;44.714;37.756;2023-08-24T05:58:14;6.25;;;3.63;;
75379;SDS011;65641;44.714;37.756;2023-08-24T05:59:18;5.15;;;3.38;;
75379;SDS011;65641;44.714;37.756;2023-08-24T06:00:22;7.00;;;2.90;;
75379;SDS011;65641;44.714;37.756;2023-08-24T06:01:26;6.55;;;4.03;;
75379;SDS011;65641;44.714;37.756;2023-08-24T06:02:29;7.18;;;3.35;;
75379;SDS011;65641;44.714;37.756;2023-08-24T06:03:33;5.68;;;3.53;;
75379;SDS011;65641;44.714;37.756;2023-08-24T06:04:37;5.20;;;2.90;;
75379;SDS011;65641;44.714;37.756;2023-08-24T06:05:41;5.43;;;2.67;;
75379;SDS011;65641;44.714;37.756;2023-08-24T06:06:44;6.63;;;3.28;;
75379;SDS011;65641;44.714;37.756;2023-08-24T06:07:48;6.53;;;3.35;;
75379;SDS011;65641;44.714;37.756;2023-08-24T06:08:52;6.68;;;3.70;;
75379;SDS011;65641;44.714;37.756;2023-08-24T06:09:56;6.25;;;3.45;;
75379;SDS011;65641;44.714;37.756;2023-08-24T06:11:00;5.32;;;3.10;;
75379;SDS011;65641;44.714;37.756;2023-08-24T06:12:03;5.57;;;3.08;;
75379;SDS011;65641;44.714;37.756;2023-08-24T06:13:07;6.40;;;3.58;;
75379;SDS011;65641;44.714;37.756;2023-08-24T06:14:11;7.55;;;3.60;;
75379;SDS011;65641;44.714;37.756;2023-08-24T06:15:19;5.35;;;3.35;;
75379;SDS011;65641;44.714;37.756;2023-08-24T06:16:27;4.97;;;2.95;;
75379;SDS011;65641;44.714;37.756;2023-08-24T06:17:31;7.10;;;3.20;;
75379;SDS011;65641;44.714;37.756;2023-08-24T06:18:35;5.65;;;2.75;;
75379;SDS011;65641;44.714;37.756;2023-08-24T06:19:39;6.93;;;3.97;;
75379;SDS011;65641;44.714;37.756;2023-08-24T06:20:43;7.13;;;3.28;;
75379;SDS011;65641;44.714;37.756;2023-08-24T06:21:47;6.38;;;3.63;;
75379;SDS011;65641;44.714;37.756;2023-08-24T06:22:50;6.38;;;3.20;;
75379;SDS011;65641;44.714;37.756;2023-08-24T06:23:54;5.05;;;3.08;;
75379;SDS011;65641;44.714;37.756;2023-08-24T06:24:57;5.43;;;3.63;;
75379;SDS011;65641;44.714;37.756;2023-08-24T06:26:03;5.38;;;3.25;;
75379;SDS011;65641;44.714;37.756;2023-08-24T06:27:07;5.65;;;3.38;;
75379;SDS011;65641;44.714;37.756;2023-08-24T06:28:11;5.47;;;3.15;;
75379;SDS011;65641;44.714;37.756;2023-08-24T06:29:16;6.05;;;3.45;;
75379;SDS011;65641;44.714;37.756;2023-08-24T06:30:20;4.97;;;3.22;;
75379;SDS011;65641;44.714;37.756;2023-08-24T06:31:23;5.88;;;3.20;;
75379;SDS011;65641;44.714;37.756;2023-08-24T06:32:27;3.78;;;2.00;;
75379;SDS011;65641;44.714;37.756;2023-08-24T06:33:34;5.22;;;2.97;;
75379;SDS011;65641;44.714;37.756;2023-08-24T06:34:38;4.85;;;3.80;;
75379;SDS011;65641;44.714;37.756;2023-08-24T06:35:41;5.30;;;3.28;;
75379;SDS011;65641;44.714;37.756;2023-08-24T06:36:45;4.85;;;2.95;;
75379;SDS011;65641;44.714;37.756;2023-08-24T06:37:48;5.03;;;2.80;;
75379;SDS011;65641;44.714;37.756;2023-08-24T06:38:52;5.90;;;3.00;;
75379;SDS011;65641;44.714;37.756;2023-08-24T06:39:56;4.72;;;3.30;;
75379;SDS011;65641;44.714;37.756;2023-08-24T06:40:59;4.80;;;3.10;;
75379;SDS011;65641;44.714;37.756;2023-08-24T06:42:03;4.40;;;3.05;;
75379;SDS011;65641;44.714;37.756;2023-08-24T06:43:07;4.75;;;3.05;;
75379;SDS011;65641;44.714;37.756;2023-08-24T06:44:10;4.45;;;2.85;;
75379;SDS011;65641;44.714;37.756;2023-08-24T06:45:14;4.80;;;2.97;;
75379;SDS011;65641;44.714;37.756;2023-08-24T06:46:17;5.03;;;3.40;;
75379;SDS011;65641;44.714;37.756;2023-08-24T06:47:22;5.32;;;2.92;;
75379;SDS011;65641;44.714;37.756;2023-08-24T06:48:25;5.53;;;2.88;;
75379;SDS011;65641;44.714;37.756;2023-08-24T06:49:29;5.82;;;3.15;;
75379;SDS011;65641;44.714;37.756;2023-08-24T06:50:33;5.43;;;2.97;;
75379;SDS011;65641;44.714;37.756;2023-08-24T06:51:37;5.72;;;2.97;;
75379;SDS011;65641;44.714;37.756;2023-08-24T06:52:41;5.53;;;2.97;;
75379;SDS011;65641;44.714;37.756;2023-08-24T06:53:44;5.90;;;3.10;;
75379;SDS011;65641;44.714;37.756;2023-08-24T06:54:49;5.57;;;2.95;;
75379;SDS011;65641;44.714;37.756;2023-08-24T06:55:56;4.65;;;2.95;;
75379;SDS011;65641;44.714;37.756;2023-08-24T06:57:00;5.57;;;2.92;;
75379;SDS011;65641;44.714;37.756;2023-08-24T06:58:04;4.10;;;2.90;;
75379;SDS011;65641;44.714;37.756;2023-08-24T06:59:08;3.95;;;2.70;;
75379;SDS011;65641;44.714;37.756;2023-08-24T07:00:13;4.20;;;3.10;;
75379;SDS011;65641;44.714;37.756;2023-08-24T07:01:18;5.45;;;2.88;;
75379;SDS011;65641;44.714;37.756;2023-08-24T07:02:21;4.13;;;3.05;;
75379;SDS011;65641;44.714;37.756;2023-08-24T07:03:25;4.85;;;2.85;;
75379;SDS011;65641;44.714;37.756;2023-08-24T07:04:28;5.45;;;3.30;;
75379;SDS011;65641;44.714;37.756;2023-08-24T07:05:32;5.80;;;2.63;;
75379;SDS011;65641;44.714;37.756;2023-08-24T07:06:39;4.13;;;2.53;;
75379;SDS011;65641;44.714;37.756;2023-08-24T07:07:42;4.28;;;2.58;;
75379;SDS011;65641;44.714;37.756;2023-08-24T07:08:46;4.70;;;3.05;;
75379;SDS011;65641;44.714;37.756;2023-08-24T07:09:50;4.43;;;3.08;;
75379;SDS011;65641;44.714;37.756;2023-08-24T07:10:53;6.72;;;3.35;;
75379;SDS011;65641;44.714;37.756;2023-08-24T07:11:56;5.20;;;3.25;;
75379;SDS011;65641;44.714;37.756;2023-08-24T07:12:59;6.88;;;3.22;;
75379;SDS011;65641;44.714;37.756;2023-08-24T07:14:03;4.95;;;2.85;;
75379;SDS011;65641;44.714;37.756;2023-08-24T07:15:07;3.75;;;2.55;;
75379;SDS011;65641;44.714;37.756;2023-08-24T07:16:11;5.13;;;3.08;;
75379;SDS011;65641;44.714;37.756;2023-08-24T07:17:14;4.18;;;2.70;;
75379;SDS011;65641;44.714;37.756;2023-08-24T07:18:18;5.60;;;2.78;;
75379;SDS011;65641;44.714;37.756;2023-08-24T07:19:21;5.35;;;3.15;;
75379;SDS011;65641;44.714;37.756;2023-08-24T07:20:25;3.38;;;2.53;;
75379;SDS011;65641;44.714;37.756;2023-08-24T07:21:28;3.75;;;2.55;;
75379;SDS011;65641;44.714;37.756;2023-08-24T07:22:33;5.93;;;3.03;;
75379;SDS011;65641;44.714;37.756;2023-08-24T07:23:37;4.97;;;2.80;;
75379;SDS011;65641;44.714;37.756;2023-08-24T07:24:40;5.13;;;2.53;;
75379;SDS011;65641;44.714;37.756;2023-08-24T07:25:47;3.97;;;2.83;;
75379;SDS011;65641;44.714;37.756;2023-08-24T07:26:52;4.13;;;2.63;;
75379;SDS011;65641;44.714;37.756;2023-08-24T07:27:56;3.30;;;2.63;;
75379;SDS011;65641;44.714;37.756;2023-08-24T07:29:03;4.13;;;2.80;;
75379;SDS011;65641;44.714;37.756;2023-08-24T07:30:06;4.20;;;3.08;;
75379;SDS011;65641;44.714;37.756;2023-08-24T07:31:32;3.40;;;2.33;;
75379;SDS011;65641;44.714;37.756;2023-08-24T07:32:38;4.25;;;3.10;;
75379;SDS011;65641;44.714;37.756;2023-08-24T07:33:42;3.63;;;2.80;;
75379;SDS011;65641;44.714;37.756;2023-08-24T07:34:48;5.10;;;2.53;;
75379;SDS011;65641;44.714;37.756;2023-08-24T07:35:52;3.53;;;2.00;;
75379;SDS011;65641;44.714;37.756;2023-08-24T07:36:55;4.28;;;3.20;;
75379;SDS011;65641;44.714;37.756;2023-08-24T07:37:59;4.65;;;2.67;;
75379;SDS011;65641;44.714;37.756;2023-08-24T07:39:03;4.18;;;2.65;;
75379;SDS011;65641;44.714;37.756;2023-08-24T07:40:06;5.05;;;3.28;;
75379;SDS011;65641;44.714;37.756;2023-08-24T07:41:11;5.40;;;2.88;;
75379;SDS011;65641;44.714;37.756;2023-08-24T07:42:15;5.30;;;2.97;;
75379;SDS011;65641;44.714;37.756;2023-08-24T07:43:18;4.03;;;2.40;;
75379;SDS011;65641;44.714;37.756;2023-08-24T07:44:22;3.35;;;2.42;;
75379;SDS011;65641;44.714;37.756;2023-08-24T07:45:26;4.18;;;3.17;;
75379;SDS011;65641;44.714;37.756;2023-08-24T07:46:30;3.90;;;2.80;;
75379;SDS011;65641;44.714;37.756;2023-08-24T07:47:33;4.53;;;2.55;;
75379;SDS011;65641;44.714;37.756;2023-08-24T07:48:37;4.85;;;2.67;;
75379;SDS011;65641;44.714;37.756;2023-08-24T07:49:40;4.47;;;2.78;;
75379;SDS011;65641;44.714;37.756;2023-08-24T07:50:47;4.55;;;3.42;;
75379;SDS011;65641;44.714;37.756;2023-08-24T07:51:50;4.75;;;2.70;;
75379;SDS011;65641;44.714;37.756;2023-08-24T07:52:54;4.10;;;2.60;;
75379;SDS011;65641;44.714;37.756;2023-08-24T07:53:59;3.40;;;2.25;;
75379;SDS011;65641;44.714;37.756;2023-08-24T07:55:03;4.55;;;2.97;;
75379;SDS011;65641;44.714;37.756;2023-08-24T07:56:09;4.75;;;2.42;;
75379;SDS011;65641;44.714;37.756;2023-08-24T07:57:13;3.72;;;2.20;;
75379;SDS011;65641;44.714;37.756;2023-08-24T07:58:16;4.82;;;3.22;;
75379;SDS011;65641;44.714;37.756;2023-08-24T07:59:20;3.95;;;2.53;;
75379;SDS011;65641;44.714;37.756;2023-08-24T08:00:23;3.90;;;1.85;;
75379;SDS011;65641;44.714;37.756;2023-08-24T08:01:27;4.07;;;2.85;;
75379;SDS011;65641;44.714;37.756;2023-08-24T08:02:31;3.30;;;2.33;;
75379;SDS011;65641;44.714;37.756;2023-08-24T08:03:38;4.40;;;2.60;;
75379;SDS011;65641;44.714;37.756;2023-08-24T08:04:45;4.13;;;2.67;;
75379;SDS011;65641;44.714;37.756;2023-08-24T08:05:49;4.55;;;2.75;;
75379;SDS011;65641;44.714;37.756;2023-08-24T08:06:53;3.63;;;2.65;;
75379;SDS011;65641;44.714;37.756;2023-08-24T08:07:56;6.45;;;2.83;;
75379;SDS011;65641;44.714;37.756;2023-08-24T08:09:00;4.35;;;3.03;;
75379;SDS011;65641;44.714;37.756;2023-08-24T08:10:04;4.32;;;2.83;;
75379;SDS011;65641;44.714;37.756;2023-08-24T08:11:07;3.50;;;2.58;;
75379;SDS011;65641;44.714;37.756;2023-08-24T08:12:11;4.63;;;2.58;;
75379;SDS011;65641;44.714;37.756;2023-08-24T08:13:15;3.70;;;2.50;;
75379;SDS011;65641;44.714;37.756;2023-08-24T08:14:18;3.22;;;2.17;;
75379;SDS011;65641;44.714;37.756;2023-08-24T08:15:23;4.00;;;2.53;;
75379;SDS011;65641;44.714;37.756;2023-08-24T08:16:27;5.10;;;3.03;;
75379;SDS011;65641;44.714;37.756;2023-08-24T08:17:30;3.92;;;2.40;;
75379;SDS011;65641;44.714;37.756;2023-08-24T08:18:36;3.95;;;3.42;;
75379;SDS011;65641;44.714;37.756;2023-08-24T08:19:41;4.57;;;2.90;;
75379;SDS011;65641;44.714;37.756;2023-08-24T08:20:44;4.30;;;2.88;;
75379;SDS011;65641;44.714;37.756;2023-08-24T08:21:49;3.85;;;2.50;;
75379;SDS011;65641;44.714;37.756;2023-08-24T08:22:52;3.92;;;2.70;;
75379;SDS011;65641;44.714;37.756;2023-08-24T08:23:56;5.00;;;2.67;;
75379;SDS011;65641;44.714;37.756;2023-08-24T08:24:59;4.80;;;2.22;;
75379;SDS011;65641;44.714;37.756;2023-08-24T08:26:03;4.72;;;3.03;;
75379;SDS011;65641;44.714;37.756;2023-08-24T08:27:07;3.03;;;2.28;;
75379;SDS011;65641;44.714;37.756;2023-08-24T08:28:10;3.33;;;2.53;;
75379;SDS011;65641;44.714;37.756;2023-08-24T08:29:14;3.72;;;2.50;;
75379;SDS011;65641;44.714;37.756;2023-08-24T08:30:19;4.43;;;2.42;;
75379;SDS011;65641;44.714;37.756;2023-08-24T08:31:23;4.35;;;2.97;;
75379;SDS011;65641;44.714;37.756;2023-08-24T08:32:27;4.50;;;2.97;;
75379;SDS011;65641;44.714;37.756;2023-08-24T08:33:31;2.97;;;2.20;;
75379;SDS011;65641;44.714;37.756;2023-08-24T08:34:34;4.63;;;2.70;;
75379;SDS011;65641;44.714;37.756;2023-08-24T08:35:38;3.75;;;2.80;;
75379;SDS011;65641;44.714;37.756;2023-08-24T08:36:44;3.20;;;2.30;;
75379;SDS011;65641;44.714;37.756;2023-08-24T08:37:47;2.90;;;2.55;;
75379;SDS011;65641;44.714;37.756;2023-08-24T08:38:53;3.25;;;1.95;;
75379;SDS011;65641;44.714;37.756;2023-08-24T08:39:57;3.45;;;2.38;;
75379;SDS011;65641;44.714;37.756;2023-08-24T08:41:02;5.00;;;2.88;;
75379;SDS011;65641;44.714;37.756;2023-08-24T08:42:10;4.32;;;2.88;;
75379;SDS011;65641;44.714;37.756;2023-08-24T08:43:16;5.15;;;2.75;;
75379;SDS011;65641;44.714;37.756;2023-08-24T08:44:19;3.70;;;2.72;;
75379;SDS011;65641;44.714;37.756;2023-08-24T08:45:25;2.92;;;2.65;;
75379;SDS011;65641;44.714;37.756;2023-08-24T08:46:29;3.72;;;2.65;;
75379;SDS011;65641;44.714;37.756;2023-08-24T08:47:35;2.55;;;1.63;;
75379;SDS011;65641;44.714;37.756;2023-08-24T08:48:40;3.88;;;2.47;;
75379;SDS011;65641;44.714;37.756;2023-08-24T08:49:44;4.20;;;2.42;;
75379;SDS011;65641;44.714;37.756;2023-08-24T08:50:51;4.70;;;2.50;;
75379;SDS011;65641;44.714;37.756;2023-08-24T08:51:59;3.20;;;2.85;;
75379;SDS011;65641;44.714;37.756;2023-08-24T08:53:03;4.95;;;2.95;;
75379;SDS011;65641;44.714;37.756;2023-08-24T08:54:06;3.50;;;2.30;;
75379;SDS011;65641;44.714;37.756;2023-08-24T08:55:10;3.25;;;2.22;;
75379;SDS011;65641;44.714;37.756;2023-08-24T08:56:14;3.95;;;2.67;;
75379;SDS011;65641;44.714;37.756;2023-08-24T08:57:20;3.63;;;2.55;;
75379;SDS011;65641;44.714;37.756;2023-08-24T08:58:26;4.15;;;2.75;;
75379;SDS011;65641;44.714;37.756;2023-08-24T08:59:31;3.17;;;2.75;;
75379;SDS011;65641;44.714;37.756;2023-08-24T09:00:35;4.15;;;2.00;;
75379;SDS011;65641;44.714;37.756;2023-08-24T09:01:39;3.35;;;1.83;;
75379;SDS011;65641;44.714;37.756;2023-08-24T09:02:45;3.70;;;2.53;;
75379;SDS011;65641;44.714;37.756;2023-08-24T09:03:51;4.10;;;2.53;;
75379;SDS011;65641;44.714;37.756;2023-08-24T09:04:56;2.72;;;2.17;;
75379;SDS011;65641;44.714;37.756;2023-08-24T09:06:00;3.35;;;2.45;;
75379;SDS011;65641;44.714;37.756;2023-08-24T09:07:06;3.10;;;1.60;;
75379;SDS011;65641;44.714;37.756;2023-08-24T09:08:15;4.32;;;2.85;;
75379;SDS011;65641;44.714;37.756;2023-08-24T09:09:19;3.28;;;2.65;;
75379;SDS011;65641;44.714;37.756;2023-08-24T09:10:23;3.70;;;2.45;;
75379;SDS011;65641;44.714;37.756;2023-08-24T09:11:27;2.67;;;2.05;;
75379;SDS011;65641;44.714;37.756;2023-08-24T09:12:31;3.45;;;2.75;;
75379;SDS011;65641;44.714;37.756;2023-08-24T09:13:36;3.50;;;2.72;;
75379;SDS011;65641;44.714;37.756;2023-08-24T09:14:40;4.07;;;2.35;;
75379;SDS011;65641;44.714;37.756;2023-08-24T09:15:44;3.22;;;2.38;;
75379;SDS011;65641;44.714;37.756;2023-08-24T09:16:48;4.97;;;2.72;;
75379;SDS011;65641;44.714;37.756;2023-08-24T09:17:53;4.13;;;3.08;;
75379;SDS011;65641;44.714;37.756;2023-08-24T09:18:59;3.22;;;2.00;;
75379;SDS011;65641;44.714;37.756;2023-08-24T09:20:08;3.30;;;2.20;;
75379;SDS011;65641;44.714;37.756;2023-08-24T09:21:15;3.67;;;2.67;;
75379;SDS011;65641;44.714;37.756;2023-08-24T09:22:19;2.70;;;2.40;;